| time (UTC) | temp C | wind direction | speed KPH | gust KPH | rain 1hr cm | rain 24hr cm | rain mn cm | humidity % | barometer mb |
| 20260509233008 | 21 | 338 | 6.4 | 12.9 | 0.00 | 0.00 | 0.00 | 69 | 1010.7 |
| 20260509231513 | 21 | 314 | 12.9 | 19.3 | 0.00 | 0.00 | 0.00 | 68 | 1010.6 |
| 20260509230018 | 21 | 323 | 4.8 | 12.9 | 0.00 | 0.00 | 0.00 | 67 | 1010.3 |
| 20260509224521 | 21 | 303 | 8.0 | 17.7 | 0.00 | 0.00 | 0.00 | 65 | 1010.2 |
| 20260509223028 | 22 | 300 | 8.0 | 19.3 | 0.00 | 0.00 | 0.00 | 63 | 1010.0 |
| 20260509221511 | 22 | 322 | 8.0 | 17.7 | 0.00 | 0.00 | 0.00 | 63 | 1009.8 |
| 20260509220016 | 22 | 317 | 11.3 | 20.9 | 0.00 | 0.00 | 0.00 | 63 | 1009.7 |
| 20260509214519 | 22 | 293 | 6.4 | 19.3 | 0.00 | 0.00 | 0.00 | 62 | 1009.6 |
| 20260509213026 | 23 | 338 | 9.7 | 16.1 | 0.00 | 0.00 | 0.00 | 58 | 1009.5 |
| 20260509211528 | 23 | 319 | 12.9 | 25.7 | 0.00 | 0.00 | 0.00 | 58 | 1009.4 |
| 20260509210014 | 22 | 327 | 11.3 | 19.3 | 0.00 | 0.00 | 0.00 | 58 | 1009.4 |
| 20260509204516 | 23 | 309 | 9.7 | 20.9 | 0.00 | 0.00 | 0.00 | 57 | 1009.4 |
| 20260509203033 | 23 | 323 | 11.3 | 22.5 | 0.00 | 0.00 | 0.00 | 57 | 1009.2 |
| 20260509201526 | 23 | 345 | 12.9 | 20.9 | 0.00 | 0.00 | 0.00 | 58 | 1009.4 |
| 20260509200033 | 23 | 272 | 6.4 | 11.3 | 0.00 | 0.00 | 0.00 | 57 | 1009.8 |
| 20260509194511 | 23 | 347 | 11.3 | 22.5 | 0.00 | 0.00 | 0.00 | 55 | 1009.9 |
| 20260509193023 | 23 | 313 | 12.9 | 24.1 | 0.00 | 0.00 | 0.00 | 54 | 1009.9 |
| 20260509191524 | 22 | 278 | 6.4 | 19.3 | 0.00 | 0.00 | 0.00 | 59 | 1009.9 |
| 20260509190028 | 22 | 33 | 9.7 | 19.3 | 0.00 | 0.00 | 0.00 | 59 | 1010.2 |
| 20260509184529 | 22 | 356 | 14.5 | 24.1 | 0.00 | 0.00 | 0.00 | 60 | 1010.2 |
| 20260509183018 | 22 | 316 | 12.9 | 24.1 | 0.00 | 0.00 | 0.00 | 59 | 1010.4 |
| 20260509181520 | 21 | 314 | 12.9 | 20.9 | 0.00 | 0.00 | 0.00 | 62 | 1010.6 |
| 20260509180023 | 21 | 338 | 14.5 | 27.4 | 0.00 | 0.00 | 0.00 | 60 | 1010.8 |
| 20260509174542 | 21 | 340 | 16.1 | 25.7 | 0.00 | 0.00 | 0.00 | 62 | 1011.0 |
| 20260509173030 | 21 | 340 | 16.1 | 24.1 | 0.00 | 0.00 | 0.00 | 58 | 1011.0 |
| 20260509171516 | 21 | 304 | 11.3 | 27.4 | 0.00 | 0.00 | 0.00 | 63 | 1011.1 |
| 20260509170024 | 20 | 298 | 9.7 | 25.7 | 0.00 | 0.00 | 0.00 | 63 | 1011.3 |
| 20260509164525 | 20 | 278 | 16.1 | 24.1 | 0.00 | 0.00 | 0.00 | 63 | 1011.2 |
| 20260509163041 | 20 | 317 | 12.9 | 24.1 | 0.00 | 0.00 | 0.00 | 65 | 1011.8 |
| 20260509161540 | 20 | 320 | 9.7 | 19.3 | 0.00 | 0.00 | 0.00 | 66 | 1012.0 |
| 20260509160021 | 20 | 37 | 11.3 | 19.3 | 0.00 | 0.00 | 0.00 | 66 | 1012.1 |
| 20260509154524 | 19 | 321 | 8.0 | 17.7 | 0.00 | 0.00 | 0.00 | 67 | 1012.2 |
| 20260509153043 | 19 | 28 | 9.7 | 19.3 | 0.00 | 0.00 | 0.00 | 68 | 1012.2 |
| 20260509151530 | 18 | 319 | 9.7 | 20.9 | 0.00 | 0.00 | 0.00 | 68 | 1011.9 |
| 20260509150038 | 18 | 36 | 6.4 | 12.9 | 0.00 | 0.00 | 0.00 | 69 | 1012.1 |
| 20260509144520 | 18 | 309 | 8.0 | 16.1 | 0.00 | 0.00 | 0.00 | 69 | 1012.2 |
| 20260509143006 | 18 | 112 | 1.6 | 6.4 | 0.00 | 0.00 | 0.00 | 72 | 1012.1 |
| 20260509141510 | 17 | 247 | 1.6 | 8.0 | 0.00 | 0.00 | 0.00 | 75 | 1012.2 |
| 20260509140011 | 16 | 242 | 4.8 | 9.7 | 0.00 | 0.00 | 0.00 | 77 | 1012.0 |
| 20260509134517 | 15 | 279 | 1.6 | 8.0 | 0.00 | 0.00 | 0.00 | 78 | 1012.2 |
| 20260509133020 | 15 | 207 | 1.6 | 8.0 | 0.00 | 0.00 | 0.00 | 78 | 1012.3 |
| 20260509131503 | 15 | 249 | 1.6 | 4.8 | 0.00 | 0.00 | 0.00 | 78 | 1012.6 |
| 20260509130011 | 15 | 122 | 0.0 | 3.2 | 0.00 | 0.00 | 0.00 | 77 | 1013.0 |
| 20260509124515 | 13 | 146 | 0.0 | 1.6 | 0.00 | 0.00 | 0.00 | 79 | 1013.0 |
| 20260509123018 | 12 | 162 | 0.0 | 1.6 | 0.00 | 0.00 | 0.00 | 88 | 1013.2 |
| 20260509121525 | 11 | 160 | 0.0 | 1.6 | 0.00 | 0.00 | 0.00 | 92 | 1013.1 |
| 20260509120006 | 9 | 132 | 0.0 | 1.6 | 0.00 | 0.00 | 0.00 | 91 | 1012.9 |
| 20260509114512 | 10 | 156 | 0.0 | 0.0 | 0.00 | 0.00 | 0.00 | 93 | 1012.7 |
| 20260509113014 | 9 | 159 | 1.6 | 1.6 | 0.00 | 0.00 | 0.00 | 94 | 1012.3 |
| 20260509111522 | 8 | 143 | 0.0 | 3.2 | 0.00 | 0.00 | 0.00 | 94 | 1012.5 |
| 20260509110026 | 8 | 140 | 0.0 | 0.0 | 0.00 | 0.00 | 0.00 | 94 | 1012.6 |
| 20260509104526 | 7 | 139 | 0.0 | 1.6 | 0.00 | 0.00 | 0.00 | 94 | 1012.7 |
| 20260509103010 | 7 | 139 | 0.0 | 0.0 | 0.00 | 0.00 | 0.00 | 94 | 1012.2 |
| 20260509101514 | 7 | 139 | 0.0 | 0.0 | 0.00 | 0.00 | 0.00 | 94 | 1012.1 |
| 20260509100020 | 7 | 139 | 0.0 | 1.6 | 0.00 | 0.00 | 0.00 | 92 | 1012.0 |
| 20260509094526 | 8 | 150 | 0.0 | 0.0 | 0.00 | 0.00 | 0.00 | 93 | 1011.9 |
| 20260509093037 | 8 | 150 | 0.0 | 0.0 | 0.00 | 0.00 | 0.00 | 92 | 1011.9 |
| 20260509091512 | 8 | 150 | 0.0 | 0.0 | 0.00 | 0.00 | 0.00 | 91 | 1012.0 |
| 20260509090018 | 9 | 190 | 0.0 | 3.2 | 0.00 | 0.00 | 0.00 | 91 | 1012.0 |
| 20260509084525 | 9 | 145 | 0.0 | 0.0 | 0.00 | 0.00 | 0.00 | 91 | 1012.2 |
| 20260509083023 | 10 | 145 | 0.0 | 0.0 | 0.00 | 0.00 | 0.00 | 89 | 1012.3 |
| 20260509081528 | 10 | 145 | 0.0 | 0.0 | 0.00 | 0.00 | 0.00 | 87 | 1012.2 |
| 20260509080015 | 11 | 145 | 0.0 | 0.0 | 0.00 | 0.00 | 0.00 | 86 | 1012.0 |
| 20260509074516 | 11 | 145 | 0.0 | 0.0 | 0.00 | 0.00 | 0.00 | 87 | 1012.2 |
| 20260509073024 | 11 | 145 | 0.0 | 3.2 | 0.00 | 0.00 | 0.00 | 85 | 1012.4 |
| 20260509071528 | 10 | 195 | 0.0 | 1.6 | 0.00 | 0.00 | 0.00 | 90 | 1012.7 |
| 20260509070030 | 10 | 172 | 0.0 | 0.0 | 0.00 | 0.00 | 0.00 | 89 | 1013.0 |
| 20260509064516 | 10 | 172 | 0.0 | 0.0 | 0.00 | 0.00 | 0.00 | 88 | 1013.2 |
| 20260509063023 | 10 | 200 | 0.0 | 0.0 | 0.00 | 0.00 | 0.00 | 86 | 1013.2 |
| 20260509061528 | 11 | 207 | 0.0 | 1.6 | 0.00 | 0.00 | 0.00 | 85 | 1013.5 |
| 20260509060033 | 12 | 207 | 0.0 | 1.6 | 0.00 | 0.00 | 0.00 | 82 | 1013.7 |
| 20260509054531 | 11 | 150 | 0.0 | 0.0 | 0.00 | 0.00 | 0.00 | 82 | 1013.9 |
| 20260509053028 | 12 | 150 | 0.0 | 0.0 | 0.00 | 0.00 | 0.00 | 80 | 1014.1 |
| 20260509051520 | 12 | 150 | 0.0 | 0.0 | 0.00 | 0.00 | 0.00 | 80 | 1014.0 |
| 20260509050042 | 13 | 146 | 0.0 | 0.0 | 0.00 | 0.00 | 0.00 | 78 | 1014.4 |
| 20260509044526 | 12 | 190 | 0.0 | 0.0 | 0.00 | 0.00 | 0.00 | 81 | 1014.5 |
| 20260509043010 | 12 | 190 | 0.0 | 0.0 | 0.00 | 0.00 | 0.00 | 81 | 1014.4 |
| 20260509041515 | 13 | 190 | 0.0 | 0.0 | 0.00 | 0.00 | 0.00 | 77 | 1014.6 |
| 20260509040018 | 13 | 190 | 0.0 | 0.0 | 0.00 | 0.00 | 0.00 | 75 | 1014.6 |
| 20260509034504 | 14 | 190 | 0.0 | 0.0 | 0.00 | 0.00 | 0.00 | 73 | 1014.7 |
| 20260509033008 | 14 | 190 | 0.0 | 1.6 | 0.00 | 0.00 | 0.00 | 74 | 1014.7 |
| 20260509031525 | 14 | 186 | 0.0 | 0.0 | 0.00 | 0.00 | 0.00 | 73 | 1014.7 |
| 20260509030019 | 14 | 186 | 0.0 | 0.0 | 0.00 | 0.00 | 0.00 | 74 | 1014.6 |
| 20260509024532 | 14 | 186 | 0.0 | 0.0 | 0.00 | 0.00 | 0.00 | 72 | 1014.8 |
| 20260509023017 | 14 | 186 | 1.6 | 3.2 | 0.00 | 0.00 | 0.00 | 70 | 1014.8 |
| 20260509021516 | 15 | 205 | 0.0 | 1.6 | 0.00 | 0.00 | 0.00 | 68 | 1014.8 |
| 20260509020015 | 15 | 210 | 0.0 | 3.2 | 0.00 | 0.00 | 0.00 | 67 | 1014.7 |
| 20260509014519 | 15 | 262 | 0.0 | 3.2 | 0.00 | 0.00 | 0.00 | 66 | 1014.8 |
| 20260509013025 | 15 | 245 | 0.0 | 3.2 | 0.00 | 0.00 | 0.00 | 64 | 1014.6 |
| 20260509011510 | 16 | 252 | 1.6 | 3.2 | 0.00 | 0.00 | 0.00 | 62 | 1014.6 |
| 20260509010022 | 16 | 269 | 0.0 | 4.8 | 0.00 | 0.00 | 0.00 | 63 | 1014.3 |
| 20260509004516 | 16 | 274 | 1.6 | 4.8 | 0.00 | 0.00 | 0.00 | 62 | 1014.2 |
| 20260509003024 | 16 | 231 | 1.6 | 3.2 | 0.00 | 0.00 | 0.00 | 62 | 1014.1 |
| 20260509001523 | 17 | 236 | 0.0 | 1.6 | 0.00 | 0.00 | 0.00 | 58 | 1014.1 |
| 20260509000014 | 18 | 276 | 1.6 | 3.2 | 0.00 | 0.00 | 0.00 | 54 | 1014.1 |
| 20260508234515 | 18 | 259 | 1.6 | 3.2 | 0.00 | 0.00 | 0.00 | 53 | 1014.0 |